Troutdale, Virginia
Current Conditions -  °F | °C
As of 12:15 AM on Thursday 23 Oct 2014 (Local Time) from KMKJ Reporting Station
Overcast Overcast  
Wind Chill: 43°   Ceiling: 1800
Heat Index: 46°   Visibility: 10mi
Dew Point: 39°   Wind: 6mph
Humidity: 76%   Direction: 250°WSW
Pressure: 30.17"   Gusts: NA
Location:  36.6915°N, 81.4378°W
Report Text: KMKJ 230415Z AUTO 25005KT 10SM OVC018 08/04 A3017 RMK AO2 T00780039
Loading
Personal Weather Stations






























Interactive Weather Map
Tropical Storm Tracking
New forecast layout! Learn more

10-Day Weather Forecast

Advertisements
Track Severe Weather on mobile